createdAt,value
2022-08-06T00:00:06.767Z,15.68
2022-08-06T00:02:31.759Z,12.77
2022-08-06T00:05:05.107Z,14.98
2022-08-06T00:07:48.234Z,22.30
2022-08-06T00:10:19.039Z,15.50
2022-08-06T00:12:48.720Z,17.38
2022-08-06T00:16:09.958Z,18.33
2022-08-06T00:18:09.195Z,17.38
2022-08-06T00:20:42.102Z,16.92
2022-08-06T00:23:16.573Z,26.02
2022-08-06T00:25:52.567Z,21.23
2022-08-06T00:28:30.760Z,18.52
2022-08-06T00:31:06.007Z,17.20
2022-08-06T00:33:43.931Z,14.32
2022-08-06T00:36:28.606Z,16.50
2022-08-06T00:39:00.996Z,17.75
2022-08-06T00:41:42.290Z,16.70
2022-08-06T00:44:14.389Z,14.20
2022-08-06T00:46:44.883Z,17.65
2022-08-06T00:49:13.521Z,20.63
2022-08-06T00:52:01.786Z,21.00
2022-08-06T00:54:35.993Z,16.90
2022-08-06T00:57:06.934Z,19.02
2022-08-06T00:59:38.885Z,17.30
2022-08-06T01:02:09.846Z,17.08
2022-08-06T01:04:38.726Z,16.50
2022-08-06T01:07:09.145Z,18.83
2022-08-06T01:09:45.969Z,15.75
2022-08-06T01:12:33.471Z,15.57
2022-08-06T01:15:16.193Z,16.13
2022-08-06T01:17:59.525Z,16.40
2022-08-06T01:21:56.948Z,15.43
2022-08-06T01:23:54.080Z,12.02
2022-08-06T01:26:46.646Z,11.85
2022-08-06T01:29:23.949Z,11.45
2022-08-06T01:32:07.088Z,10.85
2022-08-06T01:34:41.914Z,10.38
2022-08-06T01:37:25.032Z,11.57
2022-08-06T01:40:02.616Z,11.00
2022-08-06T01:42:36.288Z,10.38
2022-08-06T01:45:14.468Z,11.60
2022-08-06T01:47:54.630Z,13.13
2022-08-06T01:50:30.868Z,12.38
2022-08-06T01:53:03.552Z,10.80
2022-08-06T01:55:59.087Z,11.45
2022-08-06T01:58:31.902Z,10.48
2022-08-06T02:01:08.606Z,12.57
2022-08-06T02:03:49.967Z,9.50
2022-08-06T02:06:33.379Z,9.63
2022-08-06T02:09:21.970Z,9.43
2022-08-06T02:12:03.646Z,9.85
2022-08-06T02:14:41.642Z,9.25
2022-08-06T02:17:16.204Z,8.85
2022-08-06T02:20:05.019Z,8.68
2022-08-06T02:22:42.402Z,6.80
2022-08-06T02:25:22.362Z,6.93
2022-08-06T02:27:59.826Z,7.28
2022-08-06T02:30:36.732Z,5.28
2022-08-06T02:33:08.947Z,8.10
2022-08-06T02:35:46.670Z,6.45
2022-08-06T02:38:28.702Z,5.63
2022-08-06T02:41:03.920Z,7.20
2022-08-06T02:43:41.234Z,6.13
2022-08-06T02:46:17.376Z,6.57
2022-08-06T02:48:53.308Z,4.85
2022-08-06T02:52:10.094Z,5.50
2022-08-06T02:54:26.287Z,5.38
2022-08-06T02:57:04.290Z,4.50
2022-08-06T02:59:46.037Z,6.53
2022-08-06T03:02:27.494Z,4.20
2022-08-06T03:05:02.080Z,4.35
2022-08-06T03:07:34.399Z,4.53
2022-08-06T03:10:13.033Z,8.57
2022-08-06T03:12:44.071Z,6.18
2022-08-06T03:15:58.380Z,6.07
2022-08-06T03:18:08.093Z,4.72
2022-08-06T03:20:38.958Z,5.82
2022-08-06T03:23:10.881Z,6.15
2022-08-06T03:25:42.515Z,5.80
2022-08-06T03:28:22.442Z,5.18
2022-08-06T03:30:55.271Z,4.70
2022-08-06T03:33:41.893Z,5.57
2022-08-06T03:36:17.280Z,5.22
2022-08-06T03:38:54.636Z,3.53
2022-08-06T03:41:29.166Z,4.95
2022-08-06T03:44:05.121Z,4.18
2022-08-06T03:46:39.441Z,6.65
2022-08-06T03:49:26.063Z,5.50
2022-08-06T03:51:58.242Z,4.35
2022-08-06T03:54:34.202Z,5.22
2022-08-06T03:57:09.878Z,4.72
2022-08-06T03:59:59.010Z,5.90
2022-08-06T04:02:37.315Z,5.60
2022-08-06T04:05:21.078Z,4.82
2022-08-06T04:07:59.771Z,3.97
2022-08-06T04:10:38.980Z,6.30
2022-08-06T04:14:03.930Z,6.47
2022-08-06T04:16:02.021Z,5.57
2022-08-06T04:18:41.545Z,5.38
2022-08-06T04:21:20.799Z,7.10
2022-08-06T04:24:10.323Z,4.72
2022-08-06T04:26:41.319Z,5.20
2022-08-06T04:29:17.933Z,5.20
2022-08-06T04:32:11.584Z,5.47
2022-08-06T04:36:07.649Z,7.20
2022-08-06T04:37:39.022Z,6.03
2022-08-06T04:40:15.223Z,6.72
2022-08-06T04:42:44.740Z,5.78
2022-08-06T04:46:16.506Z,4.95
2022-08-06T04:48:06.106Z,7.13
2022-08-06T04:50:37.255Z,7.22
2022-08-06T04:53:09.095Z,8.88
2022-08-06T04:55:41.481Z,6.30
2022-08-06T04:58:32.895Z,5.50
2022-08-06T05:01:10.833Z,7.43
2022-08-06T05:04:06.959Z,4.80
2022-08-06T05:06:40.764Z,6.93
2022-08-06T05:09:23.418Z,5.93
2022-08-06T05:12:18.170Z,8.82
2022-08-06T05:14:55.400Z,7.05
2022-08-06T05:17:34.924Z,6.38
2022-08-06T05:20:27.405Z,6.80
2022-08-06T05:23:08.982Z,7.65
2022-08-06T05:25:54.140Z,8.68
2022-08-06T05:28:27.646Z,7.97
2022-08-06T05:30:57.554Z,7.00
2022-08-06T05:33:29.827Z,10.30
2022-08-06T05:36:01.800Z,10.25
2022-08-06T05:38:35.698Z,10.05
2022-08-06T05:41:07.617Z,12.23
2022-08-06T05:44:00.403Z,14.65
2022-08-06T05:46:28.347Z,15.82
2022-08-06T05:49:54.544Z,17.42
2022-08-06T05:52:00.172Z,18.27
2022-08-06T05:54:42.639Z,18.95
2022-08-06T05:57:16.949Z,23.45
2022-08-06T05:59:57.337Z,20.27
2022-08-06T06:02:30.958Z,20.98
2022-08-06T06:06:06.344Z,19.60
2022-08-06T06:08:08.302Z,17.60
2022-08-06T06:10:53.325Z,15.98
2022-08-06T06:13:32.542Z,16.27
2022-08-06T06:16:28.658Z,15.07
2022-08-06T06:19:16.313Z,17.67
2022-08-06T06:21:58.208Z,18.58
2022-08-06T06:24:37.536Z,18.67
2022-08-06T06:27:35.875Z,17.75
2022-08-06T06:30:11.975Z,18.85
2022-08-06T06:33:01.235Z,19.92
2022-08-06T06:35:36.188Z,18.33
2022-08-06T06:38:26.092Z,16.70
2022-08-06T06:41:19.870Z,15.80
2022-08-06T06:43:58.277Z,18.58
2022-08-06T06:46:40.890Z,17.33
2022-08-06T06:50:00.272Z,18.63
2022-08-06T06:52:30.887Z,16.90
2022-08-06T06:55:18.957Z,18.52
2022-08-06T06:57:53.996Z,17.33
2022-08-06T07:00:45.441Z,16.48
2022-08-06T07:03:15.222Z,20.02
2022-08-06T07:06:05.341Z,16.25
2022-08-06T07:08:42.715Z,16.42
2022-08-06T07:11:20.728Z,19.23
2022-08-06T07:13:52.879Z,15.57
2022-08-06T07:16:35.213Z,17.55
2022-08-06T07:19:10.378Z,15.75
2022-08-06T07:21:51.368Z,17.23
2022-08-06T07:24:33.381Z,16.25
2022-08-06T07:27:14.491Z,13.93
2022-08-06T07:29:50.035Z,15.02
2022-08-06T07:32:32.357Z,16.10
2022-08-06T07:35:12.246Z,14.10
2022-08-06T07:37:55.554Z,13.75
2022-08-06T07:40:30.668Z,15.90
2022-08-06T07:43:11.495Z,16.88
2022-08-06T07:45:56.638Z,14.38
2022-08-06T07:48:33.355Z,14.15
2022-08-06T07:51:05.054Z,15.98
2022-08-06T07:53:53.164Z,16.10
2022-08-06T07:56:29.494Z,15.07
2022-08-06T07:59:00.078Z,14.40
2022-08-06T08:01:36.322Z,15.15
2022-08-06T08:04:34.800Z,16.20
2022-08-06T08:07:13.136Z,12.40
2022-08-06T08:10:02.039Z,13.07
2022-08-06T08:12:37.737Z,17.77
2022-08-06T08:15:17.878Z,14.05
2022-08-06T08:17:57.531Z,13.85
2022-08-06T08:20:34.413Z,10.23
2022-08-06T08:23:07.900Z,8.98
2022-08-06T08:25:42.171Z,7.43
2022-08-06T08:28:15.255Z,5.55
2022-08-06T08:30:49.430Z,5.53
2022-08-06T08:33:19.606Z,6.85
2022-08-06T08:36:00.915Z,4.97
2022-08-06T08:38:31.088Z,4.10
2022-08-06T08:41:05.766Z,7.55
2022-08-06T08:44:00.274Z,7.28
2022-08-06T08:46:32.410Z,7.85
2022-08-06T08:49:16.030Z,6.95
2022-08-06T08:51:47.784Z,5.38
2022-08-06T08:54:23.516Z,5.75
2022-08-06T08:57:11.685Z,6.45
2022-08-06T08:59:56.989Z,5.97
2022-08-06T09:02:30.631Z,7.45
2022-08-06T09:05:00.516Z,5.88
2022-08-06T09:07:36.932Z,5.03
2022-08-06T09:10:09.200Z,5.15
2022-08-06T09:12:45.428Z,4.22
2022-08-06T09:15:18.994Z,4.95
2022-08-06T09:18:12.479Z,3.65
2022-08-06T09:20:41.355Z,2.75
2022-08-06T09:23:19.186Z,4.53
2022-08-06T09:25:52.171Z,5.38
2022-08-06T09:28:36.353Z,4.45
2022-08-06T09:31:09.945Z,3.10
2022-08-06T09:34:29.093Z,5.97
2022-08-06T09:36:45.707Z,3.47
2022-08-06T09:39:14.682Z,4.10
2022-08-06T09:41:53.916Z,2.80
2022-08-06T09:44:35.262Z,4.95
2022-08-06T09:47:07.618Z,2.75
2022-08-06T09:50:00.509Z,4.05
2022-08-06T09:52:29.693Z,3.00
2022-08-06T09:55:01.226Z,3.75
2022-08-06T09:57:45.779Z,1.77
2022-08-06T10:00:29.199Z,4.03
2022-08-06T10:02:59.593Z,2.33
2022-08-06T10:05:50.473Z,4.72
2022-08-06T10:08:22.632Z,2.22
2022-08-06T10:10:53.350Z,3.50
2022-08-06T10:13:26.105Z,3.15
2022-08-06T10:16:00.659Z,2.22
2022-08-06T10:18:56.644Z,4.60
2022-08-06T10:21:40.171Z,2.03
2022-08-06T10:24:13.051Z,4.80
2022-08-06T10:26:44.938Z,4.07
2022-08-06T10:29:16.561Z,2.63
2022-08-06T10:31:52.751Z,2.35
2022-08-06T10:34:30.822Z,4.88
2022-08-06T10:37:10.938Z,2.85
2022-08-06T10:40:08.275Z,2.85
2022-08-06T10:42:40.556Z,4.18
2022-08-06T10:45:14.246Z,5.22
2022-08-06T10:48:58.345Z,3.17
2022-08-06T10:50:50.900Z,3.30
2022-08-06T10:54:02.645Z,4.55
2022-08-06T10:56:25.708Z,3.00
2022-08-06T10:59:00.838Z,4.03
2022-08-06T11:01:43.907Z,4.38
2022-08-06T11:04:35.123Z,4.22
2022-08-06T11:08:09.137Z,4.63
2022-08-06T11:10:51.323Z,5.38
2022-08-06T11:13:36.971Z,4.55
2022-08-06T11:16:27.959Z,5.03
2022-08-06T11:19:07.153Z,4.25
2022-08-06T11:21:59.083Z,5.53
2022-08-06T11:24:37.558Z,3.88
2022-08-06T11:27:11.029Z,3.65
2022-08-06T11:30:12.633Z,3.63
2022-08-06T11:32:50.941Z,3.60
2022-08-06T11:35:51.768Z,4.07
2022-08-06T11:39:10.019Z,3.15
2022-08-06T11:41:57.722Z,3.05
2022-08-06T11:44:34.347Z,4.50
2022-08-06T11:47:24.653Z,3.20
2022-08-06T11:50:02.965Z,3.75
2022-08-06T11:52:43.999Z,3.30
2022-08-06T11:55:22.817Z,4.38
2022-08-06T11:58:23.551Z,3.97
2022-08-06T12:01:03.989Z,2.80
2022-08-06T12:03:52.265Z,4.63
2022-08-06T12:06:26.601Z,3.65
2022-08-06T12:09:20.953Z,2.88
2022-08-06T12:11:53.889Z,3.00
2022-08-06T12:14:49.148Z,5.40
2022-08-06T12:17:20.093Z,3.95
2022-08-06T12:20:01.843Z,3.38
2022-08-06T12:22:33.927Z,3.47
2022-08-06T12:25:11.078Z,2.22
2022-08-06T12:27:54.341Z,2.95
2022-08-06T12:30:36.681Z,2.78
2022-08-06T12:33:15.495Z,2.00
2022-08-06T12:35:53.725Z,2.13
2022-08-06T12:38:28.467Z,3.90
2022-08-06T12:40:58.499Z,3.85
2022-08-06T12:43:46.304Z,1.52
2022-08-06T12:46:20.818Z,3.05
2022-08-06T12:48:53.179Z,2.03
2022-08-06T12:51:27.502Z,1.92
2022-08-06T12:54:00.305Z,2.53
2022-08-06T12:56:37.383Z,2.40
2022-08-06T12:59:22.698Z,3.10
2022-08-06T13:02:09.120Z,1.55
2022-08-06T13:04:44.577Z,1.42
2022-08-06T13:07:14.899Z,1.95
2022-08-06T13:10:33.011Z,2.70
2022-08-06T13:14:13.163Z,1.60
2022-08-06T13:16:02.033Z,4.38
2022-08-06T13:18:47.724Z,1.67
2022-08-06T13:21:22.120Z,3.80
2022-08-06T13:23:54.138Z,1.90
2022-08-06T13:26:26.849Z,2.53
2022-08-06T13:30:35.628Z,1.40
2022-08-06T13:32:19.109Z,1.33
2022-08-06T13:34:53.197Z,4.15
2022-08-06T13:37:55.689Z,2.42
2022-08-06T13:40:41.826Z,2.33
2022-08-06T13:43:39.872Z,2.30
2022-08-06T13:46:15.536Z,1.27
2022-08-06T13:48:49.508Z,1.33
2022-08-06T13:51:22.670Z,1.50
2022-08-06T13:53:59.238Z,3.25
2022-08-06T13:56:34.104Z,2.72
2022-08-06T13:59:02.454Z,1.65
2022-08-06T14:01:44.570Z,3.35
2022-08-06T14:04:22.912Z,1.35
2022-08-06T14:06:59.327Z,1.48
2022-08-06T14:09:58.035Z,2.55
2022-08-06T14:12:20.646Z,2.05
2022-08-06T14:14:50.546Z,2.45
2022-08-06T14:17:19.696Z,1.65
2022-08-06T14:20:16.296Z,2.42
2022-08-06T14:22:42.945Z,2.78
2022-08-06T14:25:11.997Z,2.72
2022-08-06T14:27:43.621Z,2.75
2022-08-06T14:30:29.673Z,2.20
2022-08-06T14:33:02.988Z,3.90
2022-08-06T14:35:50.448Z,2.78
2022-08-06T14:38:30.395Z,2.33
2022-08-06T14:41:27.315Z,2.50
2022-08-06T14:44:24.687Z,2.38
2022-08-06T14:46:53.225Z,2.42
2022-08-06T14:49:21.661Z,3.03
2022-08-06T14:52:19.919Z,3.75
2022-08-06T14:54:41.611Z,3.10
2022-08-06T14:57:15.151Z,1.85
2022-08-06T14:59:48.775Z,3.75
2022-08-06T15:02:24.862Z,1.60
2022-08-06T15:04:54.148Z,3.58
2022-08-06T15:07:26.991Z,2.60
2022-08-06T15:10:27.122Z,1.52
2022-08-06T15:13:01.214Z,4.45
2022-08-06T15:15:47.029Z,3.45
2022-08-06T15:18:54.122Z,2.88
2022-08-06T15:21:51.510Z,2.47
2022-08-06T15:24:31.660Z,2.40
2022-08-06T15:27:14.315Z,1.60
2022-08-06T15:29:47.393Z,2.78
2022-08-06T15:32:18.999Z,1.95
2022-08-06T15:34:51.253Z,3.20
2022-08-06T15:37:54.349Z,2.75
2022-08-06T15:40:13.193Z,2.00
2022-08-06T15:42:46.346Z,2.50
2022-08-06T15:45:49.893Z,1.65
2022-08-06T15:48:06.909Z,2.35
2022-08-06T15:50:43.092Z,2.03
2022-08-06T15:53:23.031Z,2.85
2022-08-06T15:55:54.920Z,2.70
2022-08-06T15:58:28.303Z,3.08
2022-08-06T16:01:03.572Z,2.70
2022-08-06T16:03:37.857Z,2.35
2022-08-06T16:06:25.911Z,2.90
2022-08-06T16:09:00.838Z,2.72
2022-08-06T16:11:48.295Z,1.65
2022-08-06T16:14:33.430Z,1.45
2022-08-06T16:17:09.965Z,2.15
2022-08-06T16:19:49.135Z,3.65
2022-08-06T16:22:20.457Z,2.15
2022-08-06T16:24:50.110Z,2.22
2022-08-06T16:27:27.327Z,2.58
2022-08-06T16:30:09.326Z,3.35
2022-08-06T16:32:38.767Z,2.83
2022-08-06T16:35:15.307Z,1.83
2022-08-06T16:37:51.699Z,1.52
2022-08-06T16:40:24.545Z,2.63
2022-08-06T16:42:56.847Z,1.55
2022-08-06T16:45:37.286Z,3.10
2022-08-06T16:48:22.081Z,1.63
2022-08-06T16:51:02.397Z,1.73
2022-08-06T16:54:14.443Z,4.75
2022-08-06T16:56:21.673Z,2.00
2022-08-06T16:58:54.739Z,1.50
2022-08-06T17:04:23.680Z,4.00
2022-08-06T17:06:56.334Z,1.60
2022-08-06T17:09:25.909Z,1.70
2022-08-06T17:12:00.531Z,5.32
2022-08-06T17:14:33.151Z,2.22
2022-08-06T17:17:06.884Z,2.55
2022-08-06T17:19:41.748Z,1.77
2022-08-06T17:22:12.764Z,3.70
2022-08-06T17:30:22.318Z,2.10
2022-08-06T17:32:54.406Z,2.47
2022-08-06T17:35:23.242Z,3.72
2022-08-06T17:38:16.189Z,2.75
2022-08-06T17:40:49.487Z,3.80
2022-08-06T17:43:22.407Z,2.28
2022-08-06T17:46:00.206Z,2.60
2022-08-06T17:48:32.310Z,4.68
2022-08-06T17:51:09.770Z,2.08
2022-08-06T17:53:53.325Z,2.63
2022-08-06T17:56:30.903Z,1.35
2022-08-06T17:59:17.489Z,2.30
2022-08-06T18:02:10.870Z,2.80
2022-08-06T18:05:02.551Z,2.78
2022-08-06T18:08:11.279Z,2.75
2022-08-06T18:10:31.114Z,2.30
2022-08-06T18:13:01.931Z,1.73
2022-08-06T18:15:40.488Z,2.45
2022-08-06T18:18:20.240Z,2.33
2022-08-06T18:20:50.172Z,3.35
2022-08-06T18:23:20.833Z,1.40
2022-08-06T18:25:56.121Z,2.20
2022-08-06T18:28:39.947Z,2.50
2022-08-06T18:31:19.947Z,2.70
2022-08-06T18:33:54.113Z,3.05
2022-08-06T18:36:32.927Z,9.20
2022-08-06T18:39:02.438Z,2.40
2022-08-06T18:41:33.065Z,2.67
2022-08-06T18:44:01.943Z,3.63
2022-08-06T18:46:57.508Z,4.45
2022-08-06T18:49:32.438Z,2.45
2022-08-06T18:52:24.900Z,2.10
2022-08-06T18:54:56.895Z,2.00
2022-08-06T18:57:37.954Z,2.85
2022-08-06T19:00:21.079Z,3.05
2022-08-06T19:02:52.751Z,4.15
2022-08-06T19:05:26.943Z,2.28
2022-08-06T19:07:58.655Z,2.42
2022-08-06T19:13:12.225Z,1.45
2022-08-06T19:15:52.101Z,2.30
2022-08-06T19:18:34.099Z,2.50
2022-08-06T19:21:16.988Z,2.60
2022-08-06T19:24:02.393Z,1.90
2022-08-06T19:26:40.540Z,2.03
2022-08-06T19:30:02.017Z,1.85
2022-08-06T19:33:21.449Z,3.80
2022-08-06T19:36:45.704Z,2.58
2022-08-06T19:39:54.152Z,2.67
2022-08-06T19:42:31.853Z,1.50
2022-08-06T19:45:04.247Z,1.90
2022-08-06T19:47:49.227Z,1.73
2022-08-06T19:50:19.916Z,3.33
2022-08-06T19:52:53.359Z,3.00
2022-08-06T19:56:06.787Z,2.60
2022-08-06T19:58:26.037Z,1.52
2022-08-06T20:01:31.240Z,3.97
2022-08-06T20:04:01.922Z,1.70
2022-08-06T20:07:01.778Z,1.60
2022-08-06T20:09:59.152Z,2.28
2022-08-06T20:12:32.330Z,2.88
2022-08-06T20:15:07.892Z,4.40
2022-08-06T20:17:48.646Z,4.53
2022-08-06T20:20:29.294Z,3.38
2022-08-06T20:23:08.651Z,2.25
2022-08-06T20:26:09.447Z,2.75
2022-08-06T20:29:07.547Z,3.97
2022-08-06T20:31:23.886Z,6.45
2022-08-06T20:33:58.275Z,3.67
2022-08-06T20:36:30.876Z,3.17
2022-08-06T20:39:00.839Z,3.55
2022-08-06T20:42:03.649Z,2.45
2022-08-06T20:44:23.507Z,2.40
2022-08-06T20:47:46.193Z,3.17
2022-08-06T20:50:02.928Z,4.15
2022-08-06T20:52:33.733Z,2.90
2022-08-06T20:55:04.309Z,2.95
2022-08-06T20:57:45.824Z,2.78
2022-08-06T21:00:21.873Z,3.10
2022-08-06T21:03:03.368Z,5.68
2022-08-06T21:05:51.161Z,3.30
2022-08-06T21:08:26.752Z,2.75
2022-08-06T21:10:58.428Z,5.03
2022-08-06T21:13:48.805Z,2.58
2022-08-06T21:16:28.706Z,4.63
2022-08-06T21:19:02.562Z,2.28
2022-08-06T21:21:31.417Z,3.28
2022-08-06T21:24:01.367Z,2.65
2022-08-06T21:26:34.756Z,2.80
2022-08-06T21:30:07.132Z,3.00
2022-08-06T21:31:57.964Z,4.63
2022-08-06T21:34:27.964Z,4.55
2022-08-06T21:36:57.074Z,3.10
2022-08-06T21:39:30.138Z,4.50
2022-08-06T21:42:16.780Z,3.03
2022-08-06T21:44:49.984Z,4.70
2022-08-06T21:47:19.708Z,2.70
2022-08-06T21:49:59.651Z,3.28
2022-08-06T21:52:35.724Z,4.82
2022-08-06T21:56:35.505Z,3.70
2022-08-06T21:58:02.855Z,3.13
2022-08-06T22:00:45.237Z,4.70
2022-08-06T22:04:38.732Z,4.18
2022-08-06T22:06:21.693Z,3.58
2022-08-06T22:08:57.357Z,3.40
2022-08-06T22:12:36.370Z,4.13
2022-08-06T22:14:28.403Z,4.38
2022-08-06T22:17:06.023Z,3.25
2022-08-06T22:19:39.195Z,3.40
2022-08-06T22:22:08.307Z,4.78
2022-08-06T22:24:39.210Z,4.38
2022-08-06T22:27:12.672Z,4.25
2022-08-06T22:30:04.407Z,4.13
2022-08-06T22:32:39.789Z,3.97
2022-08-06T22:35:11.342Z,4.57
2022-08-06T22:38:17.323Z,5.28
2022-08-06T22:40:30.087Z,4.03
2022-08-06T22:43:05.389Z,4.30
2022-08-06T22:46:01.250Z,4.72
2022-08-06T22:48:35.587Z,4.88
2022-08-06T22:51:10.843Z,4.25
2022-08-06T22:54:26.843Z,4.05
2022-08-06T22:56:38.199Z,5.32
2022-08-06T22:59:31.954Z,5.78
2022-08-06T23:02:06.157Z,4.40
2022-08-06T23:04:42.411Z,4.28
2022-08-06T23:07:25.220Z,5.32
2022-08-06T23:10:02.387Z,5.13
2022-08-06T23:12:36.673Z,5.20
2022-08-06T23:15:30.321Z,5.30
2022-08-06T23:18:00.382Z,6.28
2022-08-06T23:20:31.675Z,5.85
2022-08-06T23:23:03.018Z,6.35
2022-08-06T23:25:59.869Z,6.72
2022-08-06T23:28:22.925Z,6.45
2022-08-06T23:30:52.249Z,5.10
2022-08-06T23:33:20.972Z,5.88
2022-08-06T23:35:50.700Z,4.90
2022-08-06T23:38:31.677Z,5.60
2022-08-06T23:41:16.311Z,5.75
2022-08-06T23:43:49.741Z,5.30
2022-08-06T23:46:26.995Z,5.70
2022-08-06T23:48:56.473Z,5.70
2022-08-06T23:51:35.805Z,5.50
2022-08-06T23:54:23.042Z,5.82
2022-08-06T23:56:57.821Z,5.13
2022-08-06T23:59:44.691Z,5.50
